sensor_id;sensor_type;location;lat;lon;timestamp;P1;durP1;ratioP1;P2;durP2;ratioP2
71629;SDS011;59479;51.902;8.212;2022-12-18T00:02:01;44.07;;;20.37;;
71629;SDS011;59479;51.902;8.212;2022-12-18T00:04:27;46.93;;;22.03;;
71629;SDS011;59479;51.902;8.212;2022-12-18T00:06:52;46.88;;;19.67;;
71629;SDS011;59479;51.902;8.212;2022-12-18T00:09:19;46.22;;;19.02;;
71629;SDS011;59479;51.902;8.212;2022-12-18T00:11:47;41.25;;;22.17;;
71629;SDS011;59479;51.902;8.212;2022-12-18T00:14:12;56.20;;;22.83;;
71629;SDS011;59479;51.902;8.212;2022-12-18T00:16:38;41.60;;;19.05;;
71629;SDS011;59479;51.902;8.212;2022-12-18T00:19:04;46.95;;;20.02;;
71629;SDS011;59479;51.902;8.212;2022-12-18T00:21:31;49.67;;;20.17;;
71629;SDS011;59479;51.902;8.212;2022-12-18T00:23:57;46.33;;;19.63;;
71629;SDS011;59479;51.902;8.212;2022-12-18T00:26:25;52.05;;;19.63;;
71629;SDS011;59479;51.902;8.212;2022-12-18T00:28:53;44.42;;;20.92;;
71629;SDS011;59479;51.902;8.212;2022-12-18T00:31:21;40.05;;;18.00;;
71629;SDS011;59479;51.902;8.212;2022-12-18T00:33:48;45.13;;;19.83;;
71629;SDS011;59479;51.902;8.212;2022-12-18T00:36:17;40.53;;;19.27;;
71629;SDS011;59479;51.902;8.212;2022-12-18T00:38:45;37.33;;;19.07;;
71629;SDS011;59479;51.902;8.212;2022-12-18T00:41:11;46.35;;;19.98;;
71629;SDS011;59479;51.902;8.212;2022-12-18T00:43:39;43.08;;;19.50;;
71629;SDS011;59479;51.902;8.212;2022-12-18T00:46:04;39.88;;;18.83;;
71629;SDS011;59479;51.902;8.212;2022-12-18T00:48:30;35.70;;;17.00;;
71629;SDS011;59479;51.902;8.212;2022-12-18T00:50:55;43.20;;;19.93;;
71629;SDS011;59479;51.902;8.212;2022-12-18T00:53:23;45.22;;;20.70;;
71629;SDS011;59479;51.902;8.212;2022-12-18T00:55:49;42.40;;;19.57;;
71629;SDS011;59479;51.902;8.212;2022-12-18T00:58:14;46.37;;;18.93;;
71629;SDS011;59479;51.902;8.212;2022-12-18T01:00:41;47.03;;;21.52;;
71629;SDS011;59479;51.902;8.212;2022-12-18T01:03:06;43.75;;;19.67;;
71629;SDS011;59479;51.902;8.212;2022-12-18T01:05:32;47.87;;;20.43;;
71629;SDS011;59479;51.902;8.212;2022-12-18T01:07:58;47.23;;;21.60;;
71629;SDS011;59479;51.902;8.212;2022-12-18T01:10:23;44.08;;;20.23;;
71629;SDS011;59479;51.902;8.212;2022-12-18T01:12:49;43.05;;;18.95;;
71629;SDS011;59479;51.902;8.212;2022-12-18T01:15:15;39.83;;;18.87;;
71629;SDS011;59479;51.902;8.212;2022-12-18T01:17:41;39.30;;;18.55;;
71629;SDS011;59479;51.902;8.212;2022-12-18T01:20:07;45.22;;;18.80;;
71629;SDS011;59479;51.902;8.212;2022-12-18T01:22:33;39.17;;;18.67;;
71629;SDS011;59479;51.902;8.212;2022-12-18T01:24:59;41.47;;;18.83;;
71629;SDS011;59479;51.902;8.212;2022-12-18T01:27:25;42.22;;;18.73;;
71629;SDS011;59479;51.902;8.212;2022-12-18T01:29:50;38.72;;;17.77;;
71629;SDS011;59479;51.902;8.212;2022-12-18T01:32:18;43.87;;;18.90;;
71629;SDS011;59479;51.902;8.212;2022-12-18T01:34:44;39.20;;;18.17;;
71629;SDS011;59479;51.902;8.212;2022-12-18T01:37:09;37.67;;;17.57;;
71629;SDS011;59479;51.902;8.212;2022-12-18T01:39:35;37.00;;;17.45;;
71629;SDS011;59479;51.902;8.212;2022-12-18T01:42:05;32.13;;;16.60;;
71629;SDS011;59479;51.902;8.212;2022-12-18T01:44:50;41.15;;;18.60;;
71629;SDS011;59479;51.902;8.212;2022-12-18T01:47:24;36.90;;;16.57;;
71629;SDS011;59479;51.902;8.212;2022-12-18T01:49:59;35.17;;;16.92;;
71629;SDS011;59479;51.902;8.212;2022-12-18T01:52:28;34.28;;;17.27;;
71629;SDS011;59479;51.902;8.212;2022-12-18T01:54:55;34.15;;;16.10;;
71629;SDS011;59479;51.902;8.212;2022-12-18T01:57:21;39.23;;;18.00;;
71629;SDS011;59479;51.902;8.212;2022-12-18T01:59:49;39.50;;;16.92;;
71629;SDS011;59479;51.902;8.212;2022-12-18T02:02:17;38.83;;;16.83;;
71629;SDS011;59479;51.902;8.212;2022-12-18T02:04:43;33.72;;;16.88;;
71629;SDS011;59479;51.902;8.212;2022-12-18T02:12:42;37.07;;;18.27;;
71629;SDS011;59479;51.902;8.212;2022-12-18T02:15:36;35.47;;;16.38;;
71629;SDS011;59479;51.902;8.212;2022-12-18T02:18:28;48.20;;;17.33;;
71629;SDS011;59479;51.902;8.212;2022-12-18T02:21:10;31.73;;;15.60;;
71629;SDS011;59479;51.902;8.212;2022-12-18T02:26:47;31.53;;;15.83;;
71629;SDS011;59479;51.902;8.212;2022-12-18T02:29:16;38.97;;;16.70;;
71629;SDS011;59479;51.902;8.212;2022-12-18T02:31:47;34.70;;;17.50;;
71629;SDS011;59479;51.902;8.212;2022-12-18T02:34:17;35.60;;;15.68;;
71629;SDS011;59479;51.902;8.212;2022-12-18T02:36:44;36.55;;;17.60;;
71629;SDS011;59479;51.902;8.212;2022-12-18T02:39:12;32.87;;;15.80;;
71629;SDS011;59479;51.902;8.212;2022-12-18T02:41:39;34.40;;;15.07;;
71629;SDS011;59479;51.902;8.212;2022-12-18T02:44:09;38.90;;;18.60;;
71629;SDS011;59479;51.902;8.212;2022-12-18T02:46:37;36.03;;;16.70;;
71629;SDS011;59479;51.902;8.212;2022-12-18T02:49:06;31.55;;;14.73;;
71629;SDS011;59479;51.902;8.212;2022-12-18T02:54:26;31.42;;;15.75;;
71629;SDS011;59479;51.902;8.212;2022-12-18T02:57:02;32.28;;;16.17;;
71629;SDS011;59479;51.902;8.212;2022-12-18T02:59:38;29.57;;;14.50;;
71629;SDS011;59479;51.902;8.212;2022-12-18T03:05:15;32.08;;;15.15;;
71629;SDS011;59479;51.902;8.212;2022-12-18T03:07:49;26.42;;;14.27;;
71629;SDS011;59479;51.902;8.212;2022-12-18T03:10:21;38.50;;;16.38;;
71629;SDS011;59479;51.902;8.212;2022-12-18T03:12:54;30.07;;;15.10;;
71629;SDS011;59479;51.902;8.212;2022-12-18T03:15:33;38.72;;;16.10;;
71629;SDS011;59479;51.902;8.212;2022-12-18T03:18:12;32.78;;;14.77;;
71629;SDS011;59479;51.902;8.212;2022-12-18T03:20:42;39.15;;;15.75;;
71629;SDS011;59479;51.902;8.212;2022-12-18T03:23:10;30.38;;;13.70;;
71629;SDS011;59479;51.902;8.212;2022-12-18T03:25:41;30.83;;;14.80;;
71629;SDS011;59479;51.902;8.212;2022-12-18T03:28:13;39.03;;;15.52;;
71629;SDS011;59479;51.902;8.212;2022-12-18T03:30:41;29.33;;;14.23;;
71629;SDS011;59479;51.902;8.212;2022-12-18T03:33:12;29.98;;;14.43;;
71629;SDS011;59479;51.902;8.212;2022-12-18T03:35:44;24.05;;;13.48;;
71629;SDS011;59479;51.902;8.212;2022-12-18T03:38:10;34.77;;;15.17;;
71629;SDS011;59479;51.902;8.212;2022-12-18T03:43:11;31.75;;;15.45;;
71629;SDS011;59479;51.902;8.212;2022-12-18T03:46:41;28.35;;;14.15;;
71629;SDS011;59479;51.902;8.212;2022-12-18T03:49:08;30.73;;;14.27;;
71629;SDS011;59479;51.902;8.212;2022-12-18T03:51:42;33.30;;;14.17;;
71629;SDS011;59479;51.902;8.212;2022-12-18T03:54:15;31.63;;;13.40;;
71629;SDS011;59479;51.902;8.212;2022-12-18T03:56:44;27.52;;;13.57;;
71629;SDS011;59479;51.902;8.212;2022-12-18T03:59:13;27.67;;;12.00;;
71629;SDS011;59479;51.902;8.212;2022-12-18T04:01:41;31.67;;;13.95;;
71629;SDS011;59479;51.902;8.212;2022-12-18T04:04:10;26.10;;;12.10;;
71629;SDS011;59479;51.902;8.212;2022-12-18T04:06:37;28.90;;;14.23;;
71629;SDS011;59479;51.902;8.212;2022-12-18T04:09:03;30.42;;;14.30;;
71629;SDS011;59479;51.902;8.212;2022-12-18T04:11:29;28.20;;;12.50;;
71629;SDS011;59479;51.902;8.212;2022-12-18T04:13:55;27.77;;;13.77;;
71629;SDS011;59479;51.902;8.212;2022-12-18T04:16:22;25.80;;;12.85;;
71629;SDS011;59479;51.902;8.212;2022-12-18T04:18:48;27.13;;;13.03;;
71629;SDS011;59479;51.902;8.212;2022-12-18T04:21:13;27.42;;;12.40;;
71629;SDS011;59479;51.902;8.212;2022-12-18T04:23:39;27.37;;;12.77;;
71629;SDS011;59479;51.902;8.212;2022-12-18T04:26:04;23.63;;;12.07;;
71629;SDS011;59479;51.902;8.212;2022-12-18T04:28:29;25.97;;;12.10;;
71629;SDS011;59479;51.902;8.212;2022-12-18T04:30:54;36.07;;;14.27;;
71629;SDS011;59479;51.902;8.212;2022-12-18T04:33:20;23.73;;;11.80;;
71629;SDS011;59479;51.902;8.212;2022-12-18T04:35:46;27.00;;;13.87;;
71629;SDS011;59479;51.902;8.212;2022-12-18T04:38:11;25.08;;;12.02;;
71629;SDS011;59479;51.902;8.212;2022-12-18T04:40:37;28.63;;;13.10;;
71629;SDS011;59479;51.902;8.212;2022-12-18T04:43:02;28.13;;;13.13;;
71629;SDS011;59479;51.902;8.212;2022-12-18T04:45:29;24.15;;;11.95;;
71629;SDS011;59479;51.902;8.212;2022-12-18T04:47:56;26.73;;;12.63;;
71629;SDS011;59479;51.902;8.212;2022-12-18T04:50:25;27.90;;;11.90;;
71629;SDS011;59479;51.902;8.212;2022-12-18T04:52:51;28.47;;;12.37;;
71629;SDS011;59479;51.902;8.212;2022-12-18T04:55:16;23.57;;;12.40;;
71629;SDS011;59479;51.902;8.212;2022-12-18T04:57:41;30.60;;;13.13;;
71629;SDS011;59479;51.902;8.212;2022-12-18T05:00:07;24.87;;;11.87;;
71629;SDS011;59479;51.902;8.212;2022-12-18T05:02:33;27.33;;;11.65;;
71629;SDS011;59479;51.902;8.212;2022-12-18T05:04:58;22.43;;;11.50;;
71629;SDS011;59479;51.902;8.212;2022-12-18T05:07:23;22.07;;;11.13;;
71629;SDS011;59479;51.902;8.212;2022-12-18T05:09:49;21.47;;;11.47;;
71629;SDS011;59479;51.902;8.212;2022-12-18T05:12:14;20.08;;;11.15;;
71629;SDS011;59479;51.902;8.212;2022-12-18T05:14:40;20.50;;;11.18;;
71629;SDS011;59479;51.902;8.212;2022-12-18T05:17:05;23.47;;;11.47;;
71629;SDS011;59479;51.902;8.212;2022-12-18T05:19:30;23.90;;;10.77;;
71629;SDS011;59479;51.902;8.212;2022-12-18T05:21:56;19.73;;;9.97;;
71629;SDS011;59479;51.902;8.212;2022-12-18T05:24:21;25.63;;;13.37;;
71629;SDS011;59479;51.902;8.212;2022-12-18T05:26:47;20.70;;;9.53;;
71629;SDS011;59479;51.902;8.212;2022-12-18T05:29:12;19.77;;;10.30;;
71629;SDS011;59479;51.902;8.212;2022-12-18T05:31:38;21.75;;;10.07;;
71629;SDS011;59479;51.902;8.212;2022-12-18T05:34:03;17.03;;;8.93;;
71629;SDS011;59479;51.902;8.212;2022-12-18T05:36:29;18.02;;;9.57;;
71629;SDS011;59479;51.902;8.212;2022-12-18T05:38:55;19.93;;;9.47;;
71629;SDS011;59479;51.902;8.212;2022-12-18T05:41:20;21.05;;;9.80;;
71629;SDS011;59479;51.902;8.212;2022-12-18T05:43:46;17.83;;;9.70;;
71629;SDS011;59479;51.902;8.212;2022-12-18T05:46:13;24.33;;;10.00;;
71629;SDS011;59479;51.902;8.212;2022-12-18T05:48:40;18.70;;;10.02;;
71629;SDS011;59479;51.902;8.212;2022-12-18T05:51:07;17.93;;;8.77;;
71629;SDS011;59479;51.902;8.212;2022-12-18T05:53:37;18.25;;;9.50;;
71629;SDS011;59479;51.902;8.212;2022-12-18T05:56:03;20.10;;;9.70;;
71629;SDS011;59479;51.902;8.212;2022-12-18T05:58:30;16.13;;;9.27;;
71629;SDS011;59479;51.902;8.212;2022-12-18T06:00:55;17.48;;;9.07;;
71629;SDS011;59479;51.902;8.212;2022-12-18T06:03:21;16.60;;;8.57;;
71629;SDS011;59479;51.902;8.212;2022-12-18T06:05:47;16.42;;;6.80;;
71629;SDS011;59479;51.902;8.212;2022-12-18T06:08:12;11.63;;;6.83;;
71629;SDS011;59479;51.902;8.212;2022-12-18T06:10:38;15.93;;;7.47;;
71629;SDS011;59479;51.902;8.212;2022-12-18T06:13:04;15.88;;;7.25;;
71629;SDS011;59479;51.902;8.212;2022-12-18T06:15:30;13.13;;;7.13;;
71629;SDS011;59479;51.902;8.212;2022-12-18T06:17:55;11.87;;;5.93;;
71629;SDS011;59479;51.902;8.212;2022-12-18T06:20:20;13.60;;;6.47;;
71629;SDS011;59479;51.902;8.212;2022-12-18T06:22:46;11.23;;;6.10;;
71629;SDS011;59479;51.902;8.212;2022-12-18T06:25:11;17.47;;;6.27;;
71629;SDS011;59479;51.902;8.212;2022-12-18T06:27:36;13.37;;;6.77;;
71629;SDS011;59479;51.902;8.212;2022-12-18T06:30:02;10.27;;;5.97;;
71629;SDS011;59479;51.902;8.212;2022-12-18T06:32:28;11.85;;;6.47;;
71629;SDS011;59479;51.902;8.212;2022-12-18T06:34:53;13.90;;;5.97;;
71629;SDS011;59479;51.902;8.212;2022-12-18T06:37:20;11.98;;;6.18;;
71629;SDS011;59479;51.902;8.212;2022-12-18T06:39:45;14.87;;;7.00;;
71629;SDS011;59479;51.902;8.212;2022-12-18T06:42:11;13.33;;;6.63;;
71629;SDS011;59479;51.902;8.212;2022-12-18T06:44:36;12.68;;;6.30;;
71629;SDS011;59479;51.902;8.212;2022-12-18T06:47:01;14.00;;;6.60;;
71629;SDS011;59479;51.902;8.212;2022-12-18T06:49:27;12.73;;;6.32;;
71629;SDS011;59479;51.902;8.212;2022-12-18T06:51:52;13.43;;;7.07;;
71629;SDS011;59479;51.902;8.212;2022-12-18T06:54:18;12.23;;;6.70;;
71629;SDS011;59479;51.902;8.212;2022-12-18T06:56:44;16.70;;;7.33;;
71629;SDS011;59479;51.902;8.212;2022-12-18T06:59:10;12.70;;;6.75;;
71629;SDS011;59479;51.902;8.212;2022-12-18T07:01:37;13.00;;;7.00;;
71629;SDS011;59479;51.902;8.212;2022-12-18T07:04:02;16.07;;;6.03;;
71629;SDS011;59479;51.902;8.212;2022-12-18T07:06:27;15.33;;;7.67;;
71629;SDS011;59479;51.902;8.212;2022-12-18T07:08:53;13.00;;;7.30;;
71629;SDS011;59479;51.902;8.212;2022-12-18T07:11:19;14.18;;;6.25;;
71629;SDS011;59479;51.902;8.212;2022-12-18T07:13:45;16.43;;;8.33;;
71629;SDS011;59479;51.902;8.212;2022-12-18T07:16:12;19.10;;;7.82;;
71629;SDS011;59479;51.902;8.212;2022-12-18T07:18:39;16.10;;;8.13;;
71629;SDS011;59479;51.902;8.212;2022-12-18T07:21:05;14.27;;;8.00;;
71629;SDS011;59479;51.902;8.212;2022-12-18T07:23:32;14.85;;;7.43;;
71629;SDS011;59479;51.902;8.212;2022-12-18T07:26:05;14.35;;;7.40;;
71629;SDS011;59479;51.902;8.212;2022-12-18T07:28:33;16.73;;;8.33;;
71629;SDS011;59479;51.902;8.212;2022-12-18T07:31:02;13.40;;;7.75;;
71629;SDS011;59479;51.902;8.212;2022-12-18T07:33:33;16.63;;;8.18;;
71629;SDS011;59479;51.902;8.212;2022-12-18T07:35:59;15.60;;;7.35;;
71629;SDS011;59479;51.902;8.212;2022-12-18T07:38:26;15.70;;;8.20;;
71629;SDS011;59479;51.902;8.212;2022-12-18T07:40:52;13.30;;;6.77;;
71629;SDS011;59479;51.902;8.212;2022-12-18T07:43:17;17.13;;;7.90;;
71629;SDS011;59479;51.902;8.212;2022-12-18T07:45:42;13.43;;;7.00;;
71629;SDS011;59479;51.902;8.212;2022-12-18T07:48:08;15.18;;;7.50;;
71629;SDS011;59479;51.902;8.212;2022-12-18T07:50:34;13.93;;;7.00;;
71629;SDS011;59479;51.902;8.212;2022-12-18T07:52:59;15.47;;;7.20;;
71629;SDS011;59479;51.902;8.212;2022-12-18T07:55:28;16.27;;;7.97;;
71629;SDS011;59479;51.902;8.212;2022-12-18T07:57:54;15.63;;;7.95;;
71629;SDS011;59479;51.902;8.212;2022-12-18T08:00:19;15.53;;;7.07;;
71629;SDS011;59479;51.902;8.212;2022-12-18T08:02:45;16.80;;;7.93;;
71629;SDS011;59479;51.902;8.212;2022-12-18T08:05:11;14.65;;;7.68;;
71629;SDS011;59479;51.902;8.212;2022-12-18T08:07:36;10.30;;;6.77;;
71629;SDS011;59479;51.902;8.212;2022-12-18T08:10:01;12.93;;;7.27;;
71629;SDS011;59479;51.902;8.212;2022-12-18T08:12:27;18.53;;;7.97;;
71629;SDS011;59479;51.902;8.212;2022-12-18T08:14:52;16.27;;;7.53;;
71629;SDS011;59479;51.902;8.212;2022-12-18T08:17:18;14.52;;;8.02;;
71629;SDS011;59479;51.902;8.212;2022-12-18T08:19:44;17.27;;;8.33;;
71629;SDS011;59479;51.902;8.212;2022-12-18T08:22:10;13.47;;;8.57;;
71629;SDS011;59479;51.902;8.212;2022-12-18T08:24:35;18.23;;;8.10;;
71629;SDS011;59479;51.902;8.212;2022-12-18T08:27:00;14.38;;;8.13;;
71629;SDS011;59479;51.902;8.212;2022-12-18T08:29:26;16.70;;;8.17;;
71629;SDS011;59479;51.902;8.212;2022-12-18T08:31:51;13.97;;;8.03;;
71629;SDS011;59479;51.902;8.212;2022-12-18T08:34:16;16.63;;;8.13;;
71629;SDS011;59479;51.902;8.212;2022-12-18T08:36:42;14.10;;;8.07;;
71629;SDS011;59479;51.902;8.212;2022-12-18T08:39:07;16.53;;;7.67;;
71629;SDS011;59479;51.902;8.212;2022-12-18T08:41:32;14.07;;;7.77;;
71629;SDS011;59479;51.902;8.212;2022-12-18T08:43:58;15.63;;;7.60;;
71629;SDS011;59479;51.902;8.212;2022-12-18T08:46:42;15.73;;;8.32;;
71629;SDS011;59479;51.902;8.212;2022-12-18T08:49:09;20.75;;;8.60;;
71629;SDS011;59479;51.902;8.212;2022-12-18T08:51:35;18.17;;;8.70;;
71629;SDS011;59479;51.902;8.212;2022-12-18T08:54:01;15.68;;;8.02;;
71629;SDS011;59479;51.902;8.212;2022-12-18T08:56:27;18.40;;;7.95;;
71629;SDS011;59479;51.902;8.212;2022-12-18T08:58:55;21.10;;;9.88;;
71629;SDS011;59479;51.902;8.212;2022-12-18T09:01:20;16.20;;;8.30;;
71629;SDS011;59479;51.902;8.212;2022-12-18T09:03:47;20.50;;;9.50;;
71629;SDS011;59479;51.902;8.212;2022-12-18T09:06:13;16.80;;;8.25;;
71629;SDS011;59479;51.902;8.212;2022-12-18T09:08:40;14.20;;;7.93;;
71629;SDS011;59479;51.902;8.212;2022-12-18T09:11:09;16.60;;;8.57;;
71629;SDS011;59479;51.902;8.212;2022-12-18T09:13:38;20.85;;;8.88;;
71629;SDS011;59479;51.902;8.212;2022-12-18T09:16:03;14.80;;;8.07;;
71629;SDS011;59479;51.902;8.212;2022-12-18T09:18:28;15.40;;;7.93;;
71629;SDS011;59479;51.902;8.212;2022-12-18T09:20:54;14.27;;;8.30;;
71629;SDS011;59479;51.902;8.212;2022-12-18T09:23:20;13.27;;;7.47;;
71629;SDS011;59479;51.902;8.212;2022-12-18T09:25:45;12.52;;;6.70;;
71629;SDS011;59479;51.902;8.212;2022-12-18T09:28:12;13.50;;;6.37;;
71629;SDS011;59479;51.902;8.212;2022-12-18T09:30:42;13.60;;;6.75;;
71629;SDS011;59479;51.902;8.212;2022-12-18T09:33:14;11.73;;;6.47;;
71629;SDS011;59479;51.902;8.212;2022-12-18T09:35:40;12.93;;;6.03;;
71629;SDS011;59479;51.902;8.212;2022-12-18T09:38:07;13.30;;;6.30;;
71629;SDS011;59479;51.902;8.212;2022-12-18T09:40:45;11.63;;;5.75;;
71629;SDS011;59479;51.902;8.212;2022-12-18T09:43:20;10.05;;;5.40;;
71629;SDS011;59479;51.902;8.212;2022-12-18T09:45:53;12.80;;;5.43;;
71629;SDS011;59479;51.902;8.212;2022-12-18T09:48:28;13.68;;;5.53;;
71629;SDS011;59479;51.902;8.212;2022-12-18T09:50:59;9.33;;;5.50;;
71629;SDS011;59479;51.902;8.212;2022-12-18T09:53:30;14.82;;;5.97;;
71629;SDS011;59479;51.902;8.212;2022-12-18T09:55:59;9.88;;;5.43;;
71629;SDS011;59479;51.902;8.212;2022-12-18T09:58:28;11.63;;;5.85;;
71629;SDS011;59479;51.902;8.212;2022-12-18T10:00:57;12.27;;;6.30;;
71629;SDS011;59479;51.902;8.212;2022-12-18T10:03:22;13.47;;;6.10;;
71629;SDS011;59479;51.902;8.212;2022-12-18T10:08:24;11.77;;;5.28;;
71629;SDS011;59479;51.902;8.212;2022-12-18T10:10:57;12.80;;;5.55;;
71629;SDS011;59479;51.902;8.212;2022-12-18T10:13:31;11.07;;;5.13;;
71629;SDS011;59479;51.902;8.212;2022-12-18T10:21:30;12.15;;;6.10;;
71629;SDS011;59479;51.902;8.212;2022-12-18T10:24:13;12.75;;;6.13;;
71629;SDS011;59479;51.902;8.212;2022-12-18T10:26:45;13.15;;;7.03;;
71629;SDS011;59479;51.902;8.212;2022-12-18T10:29:12;11.50;;;5.90;;
71629;SDS011;59479;51.902;8.212;2022-12-18T10:31:39;10.77;;;5.93;;
71629;SDS011;59479;51.902;8.212;2022-12-18T10:34:04;10.57;;;5.65;;
71629;SDS011;59479;51.902;8.212;2022-12-18T10:36:33;11.77;;;5.00;;
71629;SDS011;59479;51.902;8.212;2022-12-18T10:42:10;12.02;;;6.05;;
71629;SDS011;59479;51.902;8.212;2022-12-18T10:44:40;12.90;;;5.47;;
71629;SDS011;59479;51.902;8.212;2022-12-18T10:47:06;12.80;;;5.97;;
71629;SDS011;59479;51.902;8.212;2022-12-18T10:49:40;12.13;;;5.63;;
71629;SDS011;59479;51.902;8.212;2022-12-18T10:52:23;12.15;;;6.45;;
71629;SDS011;59479;51.902;8.212;2022-12-18T10:54:54;11.35;;;6.22;;
71629;SDS011;59479;51.902;8.212;2022-12-18T10:59:52;13.43;;;6.43;;
71629;SDS011;59479;51.902;8.212;2022-12-18T11:05:25;12.70;;;5.85;;
71629;SDS011;59479;51.902;8.212;2022-12-18T11:07:55;10.55;;;5.70;;
71629;SDS011;59479;51.902;8.212;2022-12-18T11:10:31;11.40;;;5.55;;
71629;SDS011;59479;51.902;8.212;2022-12-18T11:15:44;11.87;;;6.40;;
71629;SDS011;59479;51.902;8.212;2022-12-18T11:18:29;12.38;;;5.68;;
71629;SDS011;59479;51.902;8.212;2022-12-18T11:21:05;12.10;;;5.85;;
71629;SDS011;59479;51.902;8.212;2022-12-18T11:23:33;12.27;;;5.33;;
71629;SDS011;59479;51.902;8.212;2022-12-18T11:25:59;11.23;;;4.93;;
71629;SDS011;59479;51.902;8.212;2022-12-18T11:31:12;9.00;;;4.93;;
71629;SDS011;59479;51.902;8.212;2022-12-18T11:34:04;11.20;;;5.35;;
71629;SDS011;59479;51.902;8.212;2022-12-18T11:36:36;12.73;;;5.97;;
71629;SDS011;59479;51.902;8.212;2022-12-18T11:39:51;11.95;;;5.80;;
71629;SDS011;59479;51.902;8.212;2022-12-18T11:42:04;10.43;;;5.18;;
71629;SDS011;59479;51.902;8.212;2022-12-18T11:47:16;11.88;;;5.97;;
71629;SDS011;59479;51.902;8.212;2022-12-18T11:49:50;10.70;;;4.97;;
71629;SDS011;59479;51.902;8.212;2022-12-18T11:52:24;12.95;;;4.95;;
71629;SDS011;59479;51.902;8.212;2022-12-18T11:54:55;9.38;;;5.25;;
71629;SDS011;59479;51.902;8.212;2022-12-18T11:57:32;12.77;;;6.50;;
71629;SDS011;59479;51.902;8.212;2022-12-18T12:00:11;12.85;;;5.95;;
71629;SDS011;59479;51.902;8.212;2022-12-18T12:08:18;10.13;;;4.78;;
71629;SDS011;59479;51.902;8.212;2022-12-18T12:11:14;10.10;;;4.88;;
71629;SDS011;59479;51.902;8.212;2022-12-18T12:16:52;9.73;;;5.10;;
71629;SDS011;59479;51.902;8.212;2022-12-18T12:22:00;12.55;;;5.47;;
71629;SDS011;59479;51.902;8.212;2022-12-18T12:24:39;10.82;;;5.05;;
71629;SDS011;59479;51.902;8.212;2022-12-18T12:32:50;13.35;;;5.40;;
71629;SDS011;59479;51.902;8.212;2022-12-18T12:40:46;11.60;;;5.38;;
71629;SDS011;59479;51.902;8.212;2022-12-18T12:46:05;9.50;;;5.30;;
71629;SDS011;59479;51.902;8.212;2022-12-18T12:48:38;9.18;;;5.78;;
71629;SDS011;59479;51.902;8.212;2022-12-18T12:51:09;11.23;;;5.65;;
71629;SDS011;59479;51.902;8.212;2022-12-18T12:53:39;9.90;;;5.65;;
71629;SDS011;59479;51.902;8.212;2022-12-18T12:56:06;16.10;;;6.50;;
71629;SDS011;59479;51.902;8.212;2022-12-18T13:01:16;10.70;;;6.13;;
71629;SDS011;59479;51.902;8.212;2022-12-18T13:03:54;12.38;;;5.53;;
71629;SDS011;59479;51.902;8.212;2022-12-18T13:08:56;11.17;;;4.47;;
71629;SDS011;59479;51.902;8.212;2022-12-18T13:14:33;12.13;;;4.50;;
71629;SDS011;59479;51.902;8.212;2022-12-18T13:17:17;9.40;;;4.25;;
71629;SDS011;59479;51.902;8.212;2022-12-18T13:20:12;7.28;;;4.15;;
71629;SDS011;59479;51.902;8.212;2022-12-18T13:22:48;8.70;;;4.17;;
71629;SDS011;59479;51.902;8.212;2022-12-18T13:25:34;9.52;;;4.97;;
71629;SDS011;59479;51.902;8.212;2022-12-18T13:35:40;9.38;;;4.28;;
71629;SDS011;59479;51.902;8.212;2022-12-18T13:43:43;12.43;;;4.10;;
71629;SDS011;59479;51.902;8.212;2022-12-18T13:51:41;7.87;;;4.00;;
71629;SDS011;59479;51.902;8.212;2022-12-18T13:56:59;8.60;;;4.80;;
71629;SDS011;59479;51.902;8.212;2022-12-18T13:59:25;9.75;;;4.95;;
71629;SDS011;59479;51.902;8.212;2022-12-18T14:06:49;11.83;;;5.33;;
71629;SDS011;59479;51.902;8.212;2022-12-18T14:09:19;14.02;;;4.90;;
71629;SDS011;59479;51.902;8.212;2022-12-18T14:11:50;10.43;;;5.47;;
71629;SDS011;59479;51.902;8.212;2022-12-18T14:14:54;10.93;;;5.35;;
71629;SDS011;59479;51.902;8.212;2022-12-18T14:17:20;8.80;;;5.03;;
71629;SDS011;59479;51.902;8.212;2022-12-18T14:19:46;10.05;;;4.55;;
71629;SDS011;59479;51.902;8.212;2022-12-18T14:22:14;9.50;;;4.27;;
71629;SDS011;59479;51.902;8.212;2022-12-18T14:24:42;10.48;;;4.50;;
71629;SDS011;59479;51.902;8.212;2022-12-18T14:27:21;8.98;;;4.57;;
71629;SDS011;59479;51.902;8.212;2022-12-18T14:29:50;10.68;;;4.57;;
71629;SDS011;59479;51.902;8.212;2022-12-18T14:32:20;9.00;;;4.60;;
71629;SDS011;59479;51.902;8.212;2022-12-18T14:34:46;11.20;;;4.78;;
71629;SDS011;59479;51.902;8.212;2022-12-18T14:37:17;11.18;;;4.65;;
71629;SDS011;59479;51.902;8.212;2022-12-18T14:39:53;10.37;;;4.37;;
71629;SDS011;59479;51.902;8.212;2022-12-18T14:42:22;9.77;;;4.43;;
71629;SDS011;59479;51.902;8.212;2022-12-18T14:44:52;9.18;;;4.43;;
71629;SDS011;59479;51.902;8.212;2022-12-18T14:47:56;9.80;;;5.32;;
71629;SDS011;59479;51.902;8.212;2022-12-18T14:50:22;12.50;;;4.60;;
71629;SDS011;59479;51.902;8.212;2022-12-18T14:52:48;10.77;;;4.97;;
71629;SDS011;59479;51.902;8.212;2022-12-18T14:55:15;10.30;;;4.43;;
71629;SDS011;59479;51.902;8.212;2022-12-18T14:57:42;10.10;;;4.80;;
71629;SDS011;59479;51.902;8.212;2022-12-18T15:00:15;9.30;;;5.05;;
71629;SDS011;59479;51.902;8.212;2022-12-18T15:02:45;10.93;;;5.65;;
71629;SDS011;59479;51.902;8.212;2022-12-18T15:05:24;10.32;;;4.88;;
71629;SDS011;59479;51.902;8.212;2022-12-18T15:08:00;8.20;;;4.85;;
71629;SDS011;59479;51.902;8.212;2022-12-18T15:10:33;9.93;;;4.87;;
71629;SDS011;59479;51.902;8.212;2022-12-18T15:23:20;12.03;;;4.17;;
71629;SDS011;59479;51.902;8.212;2022-12-18T15:25:47;9.27;;;4.20;;
71629;SDS011;59479;51.902;8.212;2022-12-18T15:29:03;12.63;;;4.63;;
71629;SDS011;59479;51.902;8.212;2022-12-18T15:36:17;7.93;;;4.07;;
71629;SDS011;59479;51.902;8.212;2022-12-18T15:38:46;10.02;;;4.75;;
71629;SDS011;59479;51.902;8.212;2022-12-18T15:41:13;10.43;;;4.33;;
71629;SDS011;59479;51.902;8.212;2022-12-18T15:43:39;9.23;;;4.47;;
71629;SDS011;59479;51.902;8.212;2022-12-18T15:48:32;10.60;;;4.70;;
71629;SDS011;59479;51.902;8.212;2022-12-18T15:51:00;10.70;;;5.28;;
71629;SDS011;59479;51.902;8.212;2022-12-18T15:53:28;9.77;;;5.03;;
71629;SDS011;59479;51.902;8.212;2022-12-18T15:55:55;10.18;;;4.95;;
71629;SDS011;59479;51.902;8.212;2022-12-18T15:58:39;11.63;;;5.23;;
71629;SDS011;59479;51.902;8.212;2022-12-18T16:01:05;10.13;;;5.07;;
71629;SDS011;59479;51.902;8.212;2022-12-18T16:03:32;12.68;;;6.00;;
71629;SDS011;59479;51.902;8.212;2022-12-18T16:06:00;14.70;;;6.95;;
71629;SDS011;59479;51.902;8.212;2022-12-18T16:08:27;12.27;;;7.20;;
71629;SDS011;59479;51.902;8.212;2022-12-18T16:10:56;11.13;;;6.00;;
71629;SDS011;59479;51.902;8.212;2022-12-18T16:13:22;13.93;;;7.53;;
71629;SDS011;59479;51.902;8.212;2022-12-18T16:15:48;14.93;;;7.57;;
71629;SDS011;59479;51.902;8.212;2022-12-18T16:18:13;14.23;;;7.23;;
71629;SDS011;59479;51.902;8.212;2022-12-18T16:20:39;16.60;;;7.93;;
71629;SDS011;59479;51.902;8.212;2022-12-18T16:23:04;15.75;;;6.50;;
71629;SDS011;59479;51.902;8.212;2022-12-18T16:25:30;11.68;;;6.03;;
71629;SDS011;59479;51.902;8.212;2022-12-18T16:27:56;13.60;;;6.27;;
71629;SDS011;59479;51.902;8.212;2022-12-18T16:30:25;15.45;;;7.13;;
71629;SDS011;59479;51.902;8.212;2022-12-18T16:32:55;12.60;;;6.07;;
71629;SDS011;59479;51.902;8.212;2022-12-18T16:35:25;12.03;;;6.30;;
71629;SDS011;59479;51.902;8.212;2022-12-18T16:37:51;13.65;;;6.85;;
71629;SDS011;59479;51.902;8.212;2022-12-18T16:40:17;12.85;;;6.68;;
71629;SDS011;59479;51.902;8.212;2022-12-18T16:42:44;13.37;;;6.40;;